sensor_id;sensor_type;location;lat;lon;timestamp;temperature;humidity
10042;DHT22;5061;49.068;12.058;2022-08-19T00:00:42;20.60;94.80
10042;DHT22;5061;49.068;12.058;2022-08-19T00:04:08;20.60;94.90
10042;DHT22;5061;49.068;12.058;2022-08-19T00:07:29;20.60;95.10
10042;DHT22;5061;49.068;12.058;2022-08-19T00:10:49;20.50;95.00
10042;DHT22;5061;49.068;12.058;2022-08-19T00:14:12;20.50;95.20
10042;DHT22;5061;49.068;12.058;2022-08-19T00:17:33;20.50;95.10
10042;DHT22;5061;49.068;12.058;2022-08-19T00:20:54;20.50;95.30
10042;DHT22;5061;49.068;12.058;2022-08-19T00:24:15;20.40;95.40
10042;DHT22;5061;49.068;12.058;2022-08-19T00:27:36;20.40;95.50
10042;DHT22;5061;49.068;12.058;2022-08-19T00:30:57;20.40;95.40
10042;DHT22;5061;49.068;12.058;2022-08-19T00:34:17;20.40;95.50
10042;DHT22;5061;49.068;12.058;2022-08-19T00:37:38;20.40;95.40
10042;DHT22;5061;49.068;12.058;2022-08-19T00:41:04;20.40;95.50
10042;DHT22;5061;49.068;12.058;2022-08-19T00:44:27;20.40;95.70
10042;DHT22;5061;49.068;12.058;2022-08-19T00:47:48;20.40;95.70
10042;DHT22;5061;49.068;12.058;2022-08-19T00:51:09;20.30;95.80
10042;DHT22;5061;49.068;12.058;2022-08-19T00:54:30;20.30;95.90
10042;DHT22;5061;49.068;12.058;2022-08-19T00:57:55;20.30;95.90
10042;DHT22;5061;49.068;12.058;2022-08-19T01:01:16;20.30;96.00
10042;DHT22;5061;49.068;12.058;2022-08-19T01:04:37;20.30;96.00
10042;DHT22;5061;49.068;12.058;2022-08-19T01:07:59;20.30;96.10
10042;DHT22;5061;49.068;12.058;2022-08-19T01:11:21;20.30;96.00
10042;DHT22;5061;49.068;12.058;2022-08-19T01:14:42;20.30;96.10
10042;DHT22;5061;49.068;12.058;2022-08-19T01:18:08;20.30;96.20
10042;DHT22;5061;49.068;12.058;2022-08-19T01:21:46;20.30;96.20
10042;DHT22;5061;49.068;12.058;2022-08-19T01:25:08;20.30;96.30
10042;DHT22;5061;49.068;12.058;2022-08-19T01:28:29;20.30;96.60
10042;DHT22;5061;49.068;12.058;2022-08-19T01:31:50;20.30;96.40
10042;DHT22;5061;49.068;12.058;2022-08-19T01:35:13;20.30;96.40
10042;DHT22;5061;49.068;12.058;2022-08-19T01:38:36;20.30;96.50
10042;DHT22;5061;49.068;12.058;2022-08-19T01:41:57;20.30;96.40
10042;DHT22;5061;49.068;12.058;2022-08-19T01:45:19;20.30;96.40
10042;DHT22;5061;49.068;12.058;2022-08-19T01:48:41;20.30;96.30
10042;DHT22;5061;49.068;12.058;2022-08-19T01:52:03;20.30;96.30
10042;DHT22;5061;49.068;12.058;2022-08-19T01:55:23;20.40;96.40
10042;DHT22;5061;49.068;12.058;2022-08-19T01:58:58;20.40;96.30
10042;DHT22;5061;49.068;12.058;2022-08-19T02:02:19;20.40;96.30
10042;DHT22;5061;49.068;12.058;2022-08-19T02:05:40;20.40;96.40
10042;DHT22;5061;49.068;12.058;2022-08-19T02:09:02;20.40;96.30
10042;DHT22;5061;49.068;12.058;2022-08-19T02:12:23;20.40;96.40
10042;DHT22;5061;49.068;12.058;2022-08-19T02:15:44;20.40;96.50
10042;DHT22;5061;49.068;12.058;2022-08-19T02:19:04;20.30;96.60
10042;DHT22;5061;49.068;12.058;2022-08-19T02:22:25;20.40;96.60
10042;DHT22;5061;49.068;12.058;2022-08-19T02:25:47;20.30;96.50
10042;DHT22;5061;49.068;12.058;2022-08-19T02:29:08;20.30;96.60
10042;DHT22;5061;49.068;12.058;2022-08-19T02:32:28;20.30;96.90
10042;DHT22;5061;49.068;12.058;2022-08-19T02:35:50;20.20;96.80
10042;DHT22;5061;49.068;12.058;2022-08-19T02:39:11;20.20;96.80
10042;DHT22;5061;49.068;12.058;2022-08-19T02:42:31;20.20;96.80
10042;DHT22;5061;49.068;12.058;2022-08-19T02:45:52;20.20;96.80
10042;DHT22;5061;49.068;12.058;2022-08-19T02:49:13;20.20;96.80
10042;DHT22;5061;49.068;12.058;2022-08-19T02:52:36;20.20;96.80
10042;DHT22;5061;49.068;12.058;2022-08-19T02:55:57;20.20;96.90
10042;DHT22;5061;49.068;12.058;2022-08-19T02:59:18;20.30;96.90
10042;DHT22;5061;49.068;12.058;2022-08-19T03:02:39;20.20;96.80
10042;DHT22;5061;49.068;12.058;2022-08-19T03:06:08;20.20;96.90
10042;DHT22;5061;49.068;12.058;2022-08-19T03:09:29;20.20;96.90
10042;DHT22;5061;49.068;12.058;2022-08-19T03:12:50;20.20;97.00
10042;DHT22;5061;49.068;12.058;2022-08-19T03:16:12;20.20;97.00
10042;DHT22;5061;49.068;12.058;2022-08-19T03:19:33;20.20;97.00
10042;DHT22;5061;49.068;12.058;2022-08-19T03:22:53;20.20;97.10
10042;DHT22;5061;49.068;12.058;2022-08-19T03:26:14;20.20;97.20
10042;DHT22;5061;49.068;12.058;2022-08-19T03:29:37;20.20;97.20
10042;DHT22;5061;49.068;12.058;2022-08-19T03:32:58;20.20;97.10
10042;DHT22;5061;49.068;12.058;2022-08-19T03:36:23;20.20;97.20
10042;DHT22;5061;49.068;12.058;2022-08-19T03:39:43;20.20;97.20
10042;DHT22;5061;49.068;12.058;2022-08-19T03:43:04;20.20;97.30
10042;DHT22;5061;49.068;12.058;2022-08-19T03:46:29;20.20;97.40
10042;DHT22;5061;49.068;12.058;2022-08-19T03:49:50;20.20;97.40
10042;DHT22;5061;49.068;12.058;2022-08-19T03:53:11;20.20;97.50
10042;DHT22;5061;49.068;12.058;2022-08-19T03:56:34;20.20;97.50
10042;DHT22;5061;49.068;12.058;2022-08-19T03:59:56;20.20;97.50
10042;DHT22;5061;49.068;12.058;2022-08-19T04:03:17;20.20;97.50
10042;DHT22;5061;49.068;12.058;2022-08-19T04:06:39;20.20;97.50
10042;DHT22;5061;49.068;12.058;2022-08-19T04:09:59;20.20;97.50
10042;DHT22;5061;49.068;12.058;2022-08-19T04:13:20;20.20;97.50
10042;DHT22;5061;49.068;12.058;2022-08-19T04:16:42;20.30;97.50
10042;DHT22;5061;49.068;12.058;2022-08-19T04:20:04;20.30;97.60
10042;DHT22;5061;49.068;12.058;2022-08-19T04:23:25;20.30;97.60
10042;DHT22;5061;49.068;12.058;2022-08-19T04:26:48;20.30;97.60
10042;DHT22;5061;49.068;12.058;2022-08-19T04:30:10;20.30;97.60
10042;DHT22;5061;49.068;12.058;2022-08-19T04:33:30;20.40;97.70
10042;DHT22;5061;49.068;12.058;2022-08-19T04:36:53;20.40;97.70
10042;DHT22;5061;49.068;12.058;2022-08-19T04:40:14;20.40;97.70
10042;DHT22;5061;49.068;12.058;2022-08-19T04:43:53;20.40;97.70
10042;DHT22;5061;49.068;12.058;2022-08-19T04:47:14;20.50;97.80
10042;DHT22;5061;49.068;12.058;2022-08-19T04:50:34;20.50;97.80
10042;DHT22;5061;49.068;12.058;2022-08-19T04:53:55;20.50;97.80
10042;DHT22;5061;49.068;12.058;2022-08-19T04:57:15;20.50;97.80
10042;DHT22;5061;49.068;12.058;2022-08-19T05:00:38;20.60;97.90
10042;DHT22;5061;49.068;12.058;2022-08-19T05:04:00;20.60;97.80
10042;DHT22;5061;49.068;12.058;2022-08-19T05:07:21;20.60;97.90
10042;DHT22;5061;49.068;12.058;2022-08-19T05:10:42;20.70;97.90
10042;DHT22;5061;49.068;12.058;2022-08-19T05:14:03;20.70;97.90
10042;DHT22;5061;49.068;12.058;2022-08-19T05:17:25;20.70;97.90
10042;DHT22;5061;49.068;12.058;2022-08-19T05:20:46;20.70;97.80
10042;DHT22;5061;49.068;12.058;2022-08-19T05:24:27;20.70;97.80
10042;DHT22;5061;49.068;12.058;2022-08-19T05:27:48;20.70;97.80
10042;DHT22;5061;49.068;12.058;2022-08-19T05:31:08;20.70;97.80
10042;DHT22;5061;49.068;12.058;2022-08-19T05:34:29;20.70;97.80
10042;DHT22;5061;49.068;12.058;2022-08-19T05:37:50;20.70;97.80
10042;DHT22;5061;49.068;12.058;2022-08-19T05:41:14;20.70;97.70
10042;DHT22;5061;49.068;12.058;2022-08-19T05:44:39;20.70;97.70
10042;DHT22;5061;49.068;12.058;2022-08-19T05:48:03;20.70;97.80
10042;DHT22;5061;49.068;12.058;2022-08-19T05:51:24;20.70;97.80
10042;DHT22;5061;49.068;12.058;2022-08-19T05:54:46;20.80;97.80
10042;DHT22;5061;49.068;12.058;2022-08-19T05:58:08;20.70;97.80
10042;DHT22;5061;49.068;12.058;2022-08-19T06:01:28;20.70;97.70
10042;DHT22;5061;49.068;12.058;2022-08-19T06:04:49;20.70;97.80
10042;DHT22;5061;49.068;12.058;2022-08-19T06:08:09;20.70;97.80
10042;DHT22;5061;49.068;12.058;2022-08-19T06:11:43;20.70;97.80
10042;DHT22;5061;49.068;12.058;2022-08-19T06:15:10;20.80;97.90
10042;DHT22;5061;49.068;12.058;2022-08-19T06:18:31;20.70;97.90
10042;DHT22;5061;49.068;12.058;2022-08-19T06:21:53;20.80;97.90
10042;DHT22;5061;49.068;12.058;2022-08-19T06:25:14;20.80;97.90
10042;DHT22;5061;49.068;12.058;2022-08-19T06:28:35;20.80;97.90
10042;DHT22;5061;49.068;12.058;2022-08-19T06:31:58;20.70;97.90
10042;DHT22;5061;49.068;12.058;2022-08-19T06:35:19;20.70;97.90
10042;DHT22;5061;49.068;12.058;2022-08-19T06:38:39;20.70;97.90
10042;DHT22;5061;49.068;12.058;2022-08-19T06:42:03;20.70;98.00
10042;DHT22;5061;49.068;12.058;2022-08-19T06:45:26;20.70;98.00
10042;DHT22;5061;49.068;12.058;2022-08-19T06:48:48;20.70;98.00
10042;DHT22;5061;49.068;12.058;2022-08-19T06:52:09;20.70;98.00
10042;DHT22;5061;49.068;12.058;2022-08-19T06:55:32;20.60;98.10
10042;DHT22;5061;49.068;12.058;2022-08-19T06:58:52;20.60;98.20
10042;DHT22;5061;49.068;12.058;2022-08-19T07:02:14;20.60;98.30
10042;DHT22;5061;49.068;12.058;2022-08-19T07:05:41;20.70;98.20
10042;DHT22;5061;49.068;12.058;2022-08-19T07:09:03;20.60;98.20
10042;DHT22;5061;49.068;12.058;2022-08-19T07:12:24;20.70;98.30
10042;DHT22;5061;49.068;12.058;2022-08-19T07:15:46;20.70;98.30
10042;DHT22;5061;49.068;12.058;2022-08-19T07:19:07;20.70;98.30
10042;DHT22;5061;49.068;12.058;2022-08-19T07:22:27;20.70;98.40
10042;DHT22;5061;49.068;12.058;2022-08-19T07:25:48;20.70;98.40
10042;DHT22;5061;49.068;12.058;2022-08-19T07:29:10;20.70;98.40
10042;DHT22;5061;49.068;12.058;2022-08-19T07:32:31;20.70;98.40
10042;DHT22;5061;49.068;12.058;2022-08-19T07:35:51;20.80;98.50
10042;DHT22;5061;49.068;12.058;2022-08-19T07:39:15;20.80;98.50
10042;DHT22;5061;49.068;12.058;2022-08-19T07:42:37;20.80;98.50
10042;DHT22;5061;49.068;12.058;2022-08-19T07:45:58;20.80;98.50
10042;DHT22;5061;49.068;12.058;2022-08-19T07:49:19;20.90;98.60
10042;DHT22;5061;49.068;12.058;2022-08-19T07:52:40;20.90;98.50
10042;DHT22;5061;49.068;12.058;2022-08-19T07:56:02;21.00;98.50
10042;DHT22;5061;49.068;12.058;2022-08-19T07:59:27;21.00;98.50
10042;DHT22;5061;49.068;12.058;2022-08-19T08:02:49;21.00;98.80
10042;DHT22;5061;49.068;12.058;2022-08-19T08:06:10;21.10;98.50
10042;DHT22;5061;49.068;12.058;2022-08-19T08:09:49;21.10;98.50
10042;DHT22;5061;49.068;12.058;2022-08-19T08:13:10;21.10;98.50
10042;DHT22;5061;49.068;12.058;2022-08-19T08:16:36;21.10;98.50
10042;DHT22;5061;49.068;12.058;2022-08-19T08:19:57;21.20;98.60
10042;DHT22;5061;49.068;12.058;2022-08-19T08:23:18;21.20;98.60
10042;DHT22;5061;49.068;12.058;2022-08-19T08:26:49;21.30;98.60
10042;DHT22;5061;49.068;12.058;2022-08-19T08:30:16;21.40;98.60
10042;DHT22;5061;49.068;12.058;2022-08-19T08:33:36;21.40;98.50
10042;DHT22;5061;49.068;12.058;2022-08-19T08:36:57;21.50;98.90
10042;DHT22;5061;49.068;12.058;2022-08-19T08:40:38;21.50;98.60
10042;DHT22;5061;49.068;12.058;2022-08-19T08:43:59;21.60;98.60
10042;DHT22;5061;49.068;12.058;2022-08-19T08:47:21;21.60;98.60
10042;DHT22;5061;49.068;12.058;2022-08-19T08:50:46;21.70;98.70
10042;DHT22;5061;49.068;12.058;2022-08-19T08:54:11;21.80;98.70
10042;DHT22;5061;49.068;12.058;2022-08-19T08:57:36;21.80;98.50
10042;DHT22;5061;49.068;12.058;2022-08-19T09:00:57;21.90;98.50
10042;DHT22;5061;49.068;12.058;2022-08-19T09:04:18;21.90;98.60
10042;DHT22;5061;49.068;12.058;2022-08-19T09:07:48;22.00;98.60
10042;DHT22;5061;49.068;12.058;2022-08-19T09:11:22;22.00;98.60
10042;DHT22;5061;49.068;12.058;2022-08-19T09:18:10;22.10;98.70
10042;DHT22;5061;49.068;12.058;2022-08-19T09:21:31;22.10;98.60
10042;DHT22;5061;49.068;12.058;2022-08-19T09:24:53;22.20;98.60
10042;DHT22;5061;49.068;12.058;2022-08-19T09:28:14;22.30;98.60
10042;DHT22;5061;49.068;12.058;2022-08-19T09:31:34;22.30;98.50
10042;DHT22;5061;49.068;12.058;2022-08-19T09:34:55;22.40;98.40
10042;DHT22;5061;49.068;12.058;2022-08-19T09:38:20;22.40;98.20
10042;DHT22;5061;49.068;12.058;2022-08-19T09:41:41;22.40;98.10
10042;DHT22;5061;49.068;12.058;2022-08-19T09:45:02;22.50;98.10
10042;DHT22;5061;49.068;12.058;2022-08-19T09:48:23;22.50;98.00
10042;DHT22;5061;49.068;12.058;2022-08-19T09:51:45;22.60;98.00
10042;DHT22;5061;49.068;12.058;2022-08-19T09:55:09;22.60;97.90
10042;DHT22;5061;49.068;12.058;2022-08-19T09:58:32;22.70;97.80
10042;DHT22;5061;49.068;12.058;2022-08-19T10:01:52;22.80;97.70
10042;DHT22;5061;49.068;12.058;2022-08-19T10:05:14;22.70;97.60
10042;DHT22;5061;49.068;12.058;2022-08-19T10:08:53;22.70;97.50
10042;DHT22;5061;49.068;12.058;2022-08-19T10:12:13;22.70;97.50
10042;DHT22;5061;49.068;12.058;2022-08-19T10:15:35;22.70;97.50
10042;DHT22;5061;49.068;12.058;2022-08-19T10:18:57;22.70;97.50
10042;DHT22;5061;49.068;12.058;2022-08-19T10:22:18;22.80;97.50
10042;DHT22;5061;49.068;12.058;2022-08-19T10:25:39;22.80;97.40
10042;DHT22;5061;49.068;12.058;2022-08-19T10:29:00;22.70;97.30
10042;DHT22;5061;49.068;12.058;2022-08-19T10:32:20;22.70;97.30
10042;DHT22;5061;49.068;12.058;2022-08-19T10:35:42;22.70;97.30
10042;DHT22;5061;49.068;12.058;2022-08-19T10:39:08;22.60;97.20
10042;DHT22;5061;49.068;12.058;2022-08-19T10:42:29;22.60;97.30
10042;DHT22;5061;49.068;12.058;2022-08-19T10:45:55;22.60;97.30
10042;DHT22;5061;49.068;12.058;2022-08-19T10:49:19;22.60;97.30
10042;DHT22;5061;49.068;12.058;2022-08-19T10:52:41;22.70;97.30
10042;DHT22;5061;49.068;12.058;2022-08-19T10:56:03;22.70;97.30
10042;DHT22;5061;49.068;12.058;2022-08-19T10:59:44;22.80;97.30
10042;DHT22;5061;49.068;12.058;2022-08-19T11:03:05;22.80;97.20
10042;DHT22;5061;49.068;12.058;2022-08-19T11:06:26;22.80;97.20
10042;DHT22;5061;49.068;12.058;2022-08-19T11:09:46;22.80;97.20
10042;DHT22;5061;49.068;12.058;2022-08-19T11:13:07;22.80;97.10
10042;DHT22;5061;49.068;12.058;2022-08-19T11:16:27;22.80;97.10
10042;DHT22;5061;49.068;12.058;2022-08-19T11:19:50;22.80;97.00
10042;DHT22;5061;49.068;12.058;2022-08-19T11:23:11;22.90;97.00
10042;DHT22;5061;49.068;12.058;2022-08-19T11:26:33;22.90;96.80
10042;DHT22;5061;49.068;12.058;2022-08-19T11:29:54;22.90;96.70
10042;DHT22;5061;49.068;12.058;2022-08-19T11:33:14;22.80;96.70
10042;DHT22;5061;49.068;12.058;2022-08-19T11:36:39;22.80;96.70
10042;DHT22;5061;49.068;12.058;2022-08-19T11:40:00;22.80;96.70
10042;DHT22;5061;49.068;12.058;2022-08-19T11:43:20;22.70;96.60
10042;DHT22;5061;49.068;12.058;2022-08-19T11:46:43;22.70;96.60
10042;DHT22;5061;49.068;12.058;2022-08-19T11:50:06;22.70;96.70
10042;DHT22;5061;49.068;12.058;2022-08-19T11:53:29;22.80;96.70
10042;DHT22;5061;49.068;12.058;2022-08-19T11:56:50;22.70;96.50
10042;DHT22;5061;49.068;12.058;2022-08-19T12:00:11;22.70;96.70
10042;DHT22;5061;49.068;12.058;2022-08-19T12:03:33;22.70;96.80
10042;DHT22;5061;49.068;12.058;2022-08-19T12:06:54;22.70;96.90
10042;DHT22;5061;49.068;12.058;2022-08-19T12:10:17;22.60;96.90
10042;DHT22;5061;49.068;12.058;2022-08-19T12:13:38;22.50;97.00
10042;DHT22;5061;49.068;12.058;2022-08-19T12:16:59;22.50;97.10
10042;DHT22;5061;49.068;12.058;2022-08-19T12:20:20;22.40;97.20
10042;DHT22;5061;49.068;12.058;2022-08-19T12:23:42;22.40;97.30
10042;DHT22;5061;49.068;12.058;2022-08-19T12:27:03;22.30;97.30
10042;DHT22;5061;49.068;12.058;2022-08-19T12:30:24;22.30;97.40
10042;DHT22;5061;49.068;12.058;2022-08-19T12:33:46;22.30;97.50
10042;DHT22;5061;49.068;12.058;2022-08-19T12:37:07;22.30;97.70
10042;DHT22;5061;49.068;12.058;2022-08-19T12:40:29;22.20;97.60
10042;DHT22;5061;49.068;12.058;2022-08-19T12:43:50;22.10;97.70
10042;DHT22;5061;49.068;12.058;2022-08-19T12:47:12;22.10;97.90
10042;DHT22;5061;49.068;12.058;2022-08-19T12:50:34;22.00;98.00
10042;DHT22;5061;49.068;12.058;2022-08-19T12:53:54;22.00;98.10
10042;DHT22;5061;49.068;12.058;2022-08-19T12:57:15;21.90;98.20
10042;DHT22;5061;49.068;12.058;2022-08-19T13:00:36;22.00;98.40
10042;DHT22;5061;49.068;12.058;2022-08-19T13:03:56;22.00;98.50
10042;DHT22;5061;49.068;12.058;2022-08-19T13:07:17;22.00;98.80
10042;DHT22;5061;49.068;12.058;2022-08-19T13:10:38;22.10;98.80
10042;DHT22;5061;49.068;12.058;2022-08-19T13:13:59;22.10;98.70
10042;DHT22;5061;49.068;12.058;2022-08-19T13:17:20;22.10;98.70
10042;DHT22;5061;49.068;12.058;2022-08-19T13:20:41;22.20;98.70
10042;DHT22;5061;49.068;12.058;2022-08-19T13:24:02;22.20;98.80
10042;DHT22;5061;49.068;12.058;2022-08-19T13:27:22;22.30;98.80
10042;DHT22;5061;49.068;12.058;2022-08-19T13:30:46;22.30;98.90
10042;DHT22;5061;49.068;12.058;2022-08-19T13:34:30;22.20;99.00
10042;DHT22;5061;49.068;12.058;2022-08-19T13:37:51;22.20;98.90
10042;DHT22;5061;49.068;12.058;2022-08-19T13:41:12;22.20;99.00
10042;DHT22;5061;49.068;12.058;2022-08-19T13:44:33;22.20;99.00
10042;DHT22;5061;49.068;12.058;2022-08-19T13:47:57;22.20;99.00
10042;DHT22;5061;49.068;12.058;2022-08-19T13:51:18;22.20;99.00
10042;DHT22;5061;49.068;12.058;2022-08-19T13:54:38;22.20;99.10
10042;DHT22;5061;49.068;12.058;2022-08-19T13:58:00;22.20;99.10
10042;DHT22;5061;49.068;12.058;2022-08-19T14:01:23;22.20;99.10
10042;DHT22;5061;49.068;12.058;2022-08-19T14:04:44;22.10;99.20
10042;DHT22;5061;49.068;12.058;2022-08-19T14:08:05;22.10;99.30
10042;DHT22;5061;49.068;12.058;2022-08-19T14:11:25;22.10;99.40
10042;DHT22;5061;49.068;12.058;2022-08-19T14:14:46;22.10;99.40
10042;DHT22;5061;49.068;12.058;2022-08-19T14:18:07;22.20;99.60
10042;DHT22;5061;49.068;12.058;2022-08-19T14:21:28;22.30;99.70
10042;DHT22;5061;49.068;12.058;2022-08-19T14:24:48;22.40;99.80
10042;DHT22;5061;49.068;12.058;2022-08-19T14:28:10;22.50;99.90
10042;DHT22;5061;49.068;12.058;2022-08-19T14:31:31;22.80;99.90
10042;DHT22;5061;49.068;12.058;2022-08-19T14:34:51;23.10;99.90
10042;DHT22;5061;49.068;12.058;2022-08-19T14:38:17;23.40;99.90
10042;DHT22;5061;49.068;12.058;2022-08-19T14:41:40;23.70;99.90
10042;DHT22;5061;49.068;12.058;2022-08-19T14:45:03;23.90;99.90
10042;DHT22;5061;49.068;12.058;2022-08-19T14:48:25;24.00;99.80
10042;DHT22;5061;49.068;12.058;2022-08-19T14:51:46;24.20;99.70
10042;DHT22;5061;49.068;12.058;2022-08-19T14:55:08;24.30;99.60
10042;DHT22;5061;49.068;12.058;2022-08-19T14:58:28;24.50;99.40
10042;DHT22;5061;49.068;12.058;2022-08-19T15:01:49;24.60;99.30
10042;DHT22;5061;49.068;12.058;2022-08-19T15:05:11;24.70;99.10
10042;DHT22;5061;49.068;12.058;2022-08-19T15:08:33;24.70;98.80
10042;DHT22;5061;49.068;12.058;2022-08-19T15:11:55;24.60;98.60
10042;DHT22;5061;49.068;12.058;2022-08-19T15:15:18;24.50;98.40
10042;DHT22;5061;49.068;12.058;2022-08-19T15:18:39;24.30;98.10
10042;DHT22;5061;49.068;12.058;2022-08-19T15:22:00;24.20;98.00
10042;DHT22;5061;49.068;12.058;2022-08-19T15:25:21;24.00;98.00
10042;DHT22;5061;49.068;12.058;2022-08-19T15:28:42;23.90;98.00
10042;DHT22;5061;49.068;12.058;2022-08-19T15:32:03;23.80;98.00
10042;DHT22;5061;49.068;12.058;2022-08-19T15:35:27;23.80;98.00
10042;DHT22;5061;49.068;12.058;2022-08-19T15:38:48;23.70;97.90
10042;DHT22;5061;49.068;12.058;2022-08-19T15:42:11;23.60;97.90
10042;DHT22;5061;49.068;12.058;2022-08-19T15:45:32;23.60;97.90
10042;DHT22;5061;49.068;12.058;2022-08-19T15:48:53;23.50;97.80
10042;DHT22;5061;49.068;12.058;2022-08-19T15:52:14;23.30;97.80
10042;DHT22;5061;49.068;12.058;2022-08-19T15:55:40;23.30;97.90
10042;DHT22;5061;49.068;12.058;2022-08-19T15:59:01;23.20;98.00
10042;DHT22;5061;49.068;12.058;2022-08-19T16:02:40;23.20;98.00
10042;DHT22;5061;49.068;12.058;2022-08-19T16:06:19;23.10;98.00
10042;DHT22;5061;49.068;12.058;2022-08-19T16:09:46;23.00;98.00
10042;DHT22;5061;49.068;12.058;2022-08-19T16:13:06;23.00;98.10
10042;DHT22;5061;49.068;12.058;2022-08-19T16:16:32;22.90;98.20
10042;DHT22;5061;49.068;12.058;2022-08-19T16:19:53;22.80;98.20
10042;DHT22;5061;49.068;12.058;2022-08-19T16:23:14;22.70;98.30
10042;DHT22;5061;49.068;12.058;2022-08-19T16:26:36;22.60;98.40
10042;DHT22;5061;49.068;12.058;2022-08-19T16:29:56;22.50;98.40
10042;DHT22;5061;49.068;12.058;2022-08-19T16:33:17;22.40;98.40
10042;DHT22;5061;49.068;12.058;2022-08-19T16:36:38;22.40;98.60
10042;DHT22;5061;49.068;12.058;2022-08-19T16:40:02;22.40;98.50
10042;DHT22;5061;49.068;12.058;2022-08-19T16:43:24;22.30;98.50
10042;DHT22;5061;49.068;12.058;2022-08-19T16:46:45;22.30;98.50
10042;DHT22;5061;49.068;12.058;2022-08-19T16:50:07;22.20;98.60
10042;DHT22;5061;49.068;12.058;2022-08-19T16:53:28;22.20;98.60
10042;DHT22;5061;49.068;12.058;2022-08-19T16:56:49;22.10;98.70
10042;DHT22;5061;49.068;12.058;2022-08-19T17:00:10;22.00;98.80
10042;DHT22;5061;49.068;12.058;2022-08-19T17:03:33;22.00;98.80
10042;DHT22;5061;49.068;12.058;2022-08-19T17:06:54;21.90;98.90
10042;DHT22;5061;49.068;12.058;2022-08-19T17:10:16;21.90;99.10
10042;DHT22;5061;49.068;12.058;2022-08-19T17:13:36;21.80;99.20
10042;DHT22;5061;49.068;12.058;2022-08-19T17:16:58;21.70;99.30
10042;DHT22;5061;49.068;12.058;2022-08-19T17:20:18;21.60;99.40
10042;DHT22;5061;49.068;12.058;2022-08-19T17:23:39;21.50;99.50
10042;DHT22;5061;49.068;12.058;2022-08-19T17:27:00;21.40;99.60
10042;DHT22;5061;49.068;12.058;2022-08-19T17:30:22;21.30;99.60
10042;DHT22;5061;49.068;12.058;2022-08-19T17:33:42;21.20;99.70
10042;DHT22;5061;49.068;12.058;2022-08-19T17:37:03;21.10;99.80
10042;DHT22;5061;49.068;12.058;2022-08-19T17:40:24;21.00;99.80
10042;DHT22;5061;49.068;12.058;2022-08-19T17:43:45;21.00;99.90
10042;DHT22;5061;49.068;12.058;2022-08-19T17:47:06;20.80;99.90
10042;DHT22;5061;49.068;12.058;2022-08-19T17:50:27;20.80;99.90
10042;DHT22;5061;49.068;12.058;2022-08-19T17:53:50;20.70;99.90
10042;DHT22;5061;49.068;12.058;2022-08-19T17:57:11;20.70;99.90
10042;DHT22;5061;49.068;12.058;2022-08-19T18:00:33;20.70;99.90
10042;DHT22;5061;49.068;12.058;2022-08-19T18:03:54;20.60;99.90
10042;DHT22;5061;49.068;12.058;2022-08-19T18:07:15;20.50;99.90
10042;DHT22;5061;49.068;12.058;2022-08-19T18:10:40;20.50;99.90
10042;DHT22;5061;49.068;12.058;2022-08-19T18:14:01;20.50;99.90
10042;DHT22;5061;49.068;12.058;2022-08-19T18:17:22;20.50;99.90
10042;DHT22;5061;49.068;12.058;2022-08-19T18:20:44;20.40;99.90
10042;DHT22;5061;49.068;12.058;2022-08-19T18:24:04;20.40;99.90
10042;DHT22;5061;49.068;12.058;2022-08-19T18:27:25;20.30;99.90
10042;DHT22;5061;49.068;12.058;2022-08-19T18:30:47;20.30;99.90
10042;DHT22;5061;49.068;12.058;2022-08-19T18:34:07;20.30;99.90
10042;DHT22;5061;49.068;12.058;2022-08-19T18:37:29;20.30;99.90
10042;DHT22;5061;49.068;12.058;2022-08-19T18:40:50;20.30;99.90
10042;DHT22;5061;49.068;12.058;2022-08-19T18:44:29;20.30;99.90
10042;DHT22;5061;49.068;12.058;2022-08-19T18:48:08;20.30;99.90
10042;DHT22;5061;49.068;12.058;2022-08-19T18:51:47;20.30;99.90
10042;DHT22;5061;49.068;12.058;2022-08-19T18:55:09;20.30;99.90
10042;DHT22;5061;49.068;12.058;2022-08-19T18:58:30;20.20;99.90
10042;DHT22;5061;49.068;12.058;2022-08-19T19:01:55;20.20;99.90
10042;DHT22;5061;49.068;12.058;2022-08-19T19:05:16;20.20;99.90
10042;DHT22;5061;49.068;12.058;2022-08-19T19:08:37;20.10;99.90
10042;DHT22;5061;49.068;12.058;2022-08-19T19:12:03;20.10;99.90
10042;DHT22;5061;49.068;12.058;2022-08-19T19:15:23;20.10;99.90
10042;DHT22;5061;49.068;12.058;2022-08-19T19:18:44;20.10;99.90
10042;DHT22;5061;49.068;12.058;2022-08-19T19:22:04;20.10;99.90
10042;DHT22;5061;49.068;12.058;2022-08-19T19:25:25;20.00;99.90
10042;DHT22;5061;49.068;12.058;2022-08-19T19:28:47;20.00;99.90
10042;DHT22;5061;49.068;12.058;2022-08-19T19:32:15;19.90;99.90
10042;DHT22;5061;49.068;12.058;2022-08-19T19:35:36;19.90;99.90
10042;DHT22;5061;49.068;12.058;2022-08-19T19:38:57;19.90;99.90
10042;DHT22;5061;49.068;12.058;2022-08-19T19:42:20;20.00;99.90
10042;DHT22;5061;49.068;12.058;2022-08-19T19:45:41;19.90;99.90
10042;DHT22;5061;49.068;12.058;2022-08-19T19:49:03;19.90;99.90
10042;DHT22;5061;49.068;12.058;2022-08-19T19:52:24;19.90;99.90
10042;DHT22;5061;49.068;12.058;2022-08-19T19:55:45;19.90;99.90
10042;DHT22;5061;49.068;12.058;2022-08-19T19:59:06;19.90;99.90
10042;DHT22;5061;49.068;12.058;2022-08-19T20:02:29;19.90;99.90
10042;DHT22;5061;49.068;12.058;2022-08-19T20:05:50;19.90;99.90
10042;DHT22;5061;49.068;12.058;2022-08-19T20:09:13;19.80;99.90
10042;DHT22;5061;49.068;12.058;2022-08-19T20:12:36;19.80;99.90
10042;DHT22;5061;49.068;12.058;2022-08-19T20:15:59;19.80;99.90
10042;DHT22;5061;49.068;12.058;2022-08-19T20:19:24;19.70;99.90
10042;DHT22;5061;49.068;12.058;2022-08-19T20:22:46;19.70;99.90
10042;DHT22;5061;49.068;12.058;2022-08-19T20:26:06;19.70;99.90
10042;DHT22;5061;49.068;12.058;2022-08-19T20:29:27;19.60;99.90
10042;DHT22;5061;49.068;12.058;2022-08-19T20:32:49;19.60;99.90
10042;DHT22;5061;49.068;12.058;2022-08-19T20:36:10;19.50;99.90
10042;DHT22;5061;49.068;12.058;2022-08-19T20:39:30;19.50;99.90
10042;DHT22;5061;49.068;12.058;2022-08-19T20:42:51;19.50;99.90
10042;DHT22;5061;49.068;12.058;2022-08-19T20:46:13;19.50;99.90
10042;DHT22;5061;49.068;12.058;2022-08-19T20:49:34;19.40;99.90
10042;DHT22;5061;49.068;12.058;2022-08-19T20:52:55;19.40;99.90
10042;DHT22;5061;49.068;12.058;2022-08-19T20:56:16;19.40;99.90
10042;DHT22;5061;49.068;12.058;2022-08-19T20:59:36;19.40;99.90
10042;DHT22;5061;49.068;12.058;2022-08-19T21:02:57;19.40;99.90
10042;DHT22;5061;49.068;12.058;2022-08-19T21:06:18;19.40;99.90
10042;DHT22;5061;49.068;12.058;2022-08-19T21:09:39;19.30;99.90
10042;DHT22;5061;49.068;12.058;2022-08-19T21:13:00;19.30;99.90
10042;DHT22;5061;49.068;12.058;2022-08-19T21:16:23;19.30;99.90
10042;DHT22;5061;49.068;12.058;2022-08-19T21:19:44;19.20;99.90